PWSweather.com
Personal Weather Stations
Station Observations
GIRWX1
Presovsky Kraj, GiraltovceSK

Presovsky KrajGiraltovceSK

Lat: 49.118, Lon: 21.52

Elevation: 630

Station Type: wh1080

http://www.meteogiraltovce.wz.cz/

High Low Average
Temperature 55.0°F12.8°C 47.8°F8.8°C 51.5°F10.8°C
Dew Point 51.9°F11.1°C 42.9°F6.1°C 47.6°F8.7°C
Winds 12.0 mph 19.3 kmh Calm Calm 3.0 mph S4.8 kmh S
Wind Gusts 18.3 mph29.5 kmh -- 5.0 mph8.0 kmh
Humidity 91% 79% 86%
Pressure 29.99 in1015.6 mb 29.91 in1012.9 mb -
Precipitation 0.06 in1.5 mm - -
Hour Temp Dew Point Humidity Winds Wind Gusts Pressure Precip Precip Rate Daily Precip Total
12:00 AM 47.8°F8.8°C 42.9°F6.1°C 83% 0.2 mph E0.3 kmh E 1.6 mph2.6 kmh 29.91 in1012.9 mb 0.00 in0.0 mm 0.00 in0.0 mm 0.00 in0.0 mm
12:05 AM 47.8°F8.8°C 42.9°F6.1°C 83% Calm Calm -- 29.92 in1013.2 mb 0.00 in0.0 mm 0.00 in0.0 mm 0.00 in0.0 mm
12:10 AM 47.8°F8.8°C 42.9°F6.1°C 83% Calm Calm 0.7 mph1.1 kmh 29.92 in1013.2 mb 0.00 in0.0 mm 0.00 in0.0 mm 0.00 in0.0 mm
12:15 AM 47.9°F8.8°C 43.2°F6.2°C 84% 0.3 mph 0.5 kmh 1.6 mph2.6 kmh 29.91 in1012.9 mb 0.00 in0.0 mm 0.00 in0.0 mm 0.00 in0.0 mm
12:20 AM 48.0°F8.9°C 43.4°F6.3°C 84% Calm Calm -- 29.91 in1012.9 mb 0.00 in0.0 mm 0.00 in0.0 mm 0.00 in0.0 mm
12:25 AM 48.0°F8.9°C 43.4°F6.3°C 84% Calm Calm -- 29.91 in1012.9 mb 0.00 in0.0 mm 0.00 in0.0 mm 0.00 in0.0 mm
12:30 AM 48.0°F8.9°C 43.4°F6.3°C 84% 0.2 mph NE0.3 kmh NE 1.6 mph2.6 kmh 29.91 in1012.9 mb 0.00 in0.0 mm 0.00 in0.0 mm 0.00 in0.0 mm
12:35 AM 48.0°F8.9°C 43.4°F6.3°C 84% 0.4 mph NE0.6 kmh NE 1.6 mph2.6 kmh 29.91 in1012.9 mb 0.00 in0.0 mm 0.00 in0.0 mm 0.00 in0.0 mm
12:40 AM 48.0°F8.9°C 43.4°F6.3°C 84% Calm Calm -- 29.91 in1012.9 mb 0.00 in0.0 mm 0.00 in0.0 mm 0.00 in0.0 mm
12:45 AM 48.0°F8.9°C 43.4°F6.3°C 84% 0.1 mph 0.2 kmh 0.7 mph1.1 kmh 29.91 in1012.9 mb 0.00 in0.0 mm 0.00 in0.0 mm 0.00 in0.0 mm
12:50 AM 48.0°F8.9°C 43.4°F6.3°C 84% 0.4 mph 0.6 kmh 1.6 mph2.6 kmh 29.91 in1012.9 mb 0.00 in0.0 mm 0.00 in0.0 mm 0.00 in0.0 mm
12:55 AM 48.0°F8.9°C 43.4°F6.3°C 84% 0.2 mph NE0.3 kmh NE 1.6 mph2.6 kmh 29.91 in1012.9 mb 0.00 in0.0 mm 0.00 in0.0 mm 0.00 in0.0 mm
01:00 AM 48.0°F8.9°C 43.4°F6.3°C 84% 0.3 mph E0.5 kmh E 1.6 mph2.6 kmh 29.91 in1012.9 mb 0.00 in0.0 mm 0.00 in0.0 mm 0.00 in0.0 mm
01:05 AM 48.1°F8.9°C 43.5°F6.4°C 84% 0.6 mph NE1.0 kmh NE 1.6 mph2.6 kmh 29.91 in1012.9 mb 0.00 in0.0 mm 0.00 in0.0 mm 0.00 in0.0 mm
01:10 AM 48.2°F9.0°C 43.6°F6.4°C 84% 0.6 mph 1.0 kmh 1.6 mph2.6 kmh 29.91 in1012.9 mb 0.00 in0.0 mm 0.00 in0.0 mm 0.00 in0.0 mm
01:15 AM 48.2°F9.0°C 43.6°F6.4°C 84% Calm Calm 0.7 mph1.1 kmh 29.91 in1012.9 mb 0.00 in0.0 mm 0.00 in0.0 mm 0.00 in0.0 mm
01:20 AM 48.2°F9.0°C 43.9°F6.6°C 85% 0.9 mph 1.4 kmh 2.2 mph3.5 kmh 29.91 in1012.9 mb 0.00 in0.0 mm 0.00 in0.0 mm 0.00 in0.0 mm
01:25 AM 48.2°F9.0°C 43.9°F6.6°C 85% 0.7 mph NNW1.1 kmh NNW 1.6 mph2.6 kmh 29.91 in1012.9 mb 0.00 in0.0 mm 0.00 in0.0 mm 0.00 in0.0 mm
01:30 AM 48.2°F9.0°C 43.9°F6.6°C 85% 0.8 mph N1.3 kmh N 2.2 mph3.5 kmh 29.91 in1012.9 mb 0.00 in0.0 mm 0.00 in0.0 mm 0.00 in0.0 mm
01:35 AM 48.2°F9.0°C 43.9°F6.6°C 85% 0.6 mph NE1.0 kmh NE 1.6 mph2.6 kmh 29.91 in1012.9 mb 0.00 in0.0 mm 0.00 in0.0 mm 0.00 in0.0 mm
01:40 AM 48.2°F9.0°C 43.9°F6.6°C 85% 0.2 mph SE0.3 kmh SE 1.6 mph2.6 kmh 29.92 in1013.2 mb 0.00 in0.0 mm 0.00 in0.0 mm 0.00 in0.0 mm
01:45 AM 48.2°F9.0°C 43.9°F6.6°C 85% Calm Calm 0.7 mph1.1 kmh 29.92 in1013.2 mb 0.00 in0.0 mm 0.00 in0.0 mm 0.00 in0.0 mm
01:50 AM 48.2°F9.0°C 43.9°F6.6°C 85% Calm Calm -- 29.91 in1012.9 mb 0.00 in0.0 mm 0.00 in0.0 mm 0.00 in0.0 mm
01:55 AM 48.1°F8.9°C 43.8°F6.6°C 85% 0.1 mph SE0.2 kmh SE 1.6 mph2.6 kmh 29.92 in1013.2 mb 0.00 in0.0 mm 0.00 in0.0 mm 0.00 in0.0 mm
02:00 AM 48.0°F8.9°C 43.7°F6.5°C 85% Calm Calm 0.7 mph1.1 kmh 29.91 in1012.9 mb 0.00 in0.0 mm 0.00 in0.0 mm 0.00 in0.0 mm
02:05 AM 48.0°F8.9°C 43.7°F6.5°C 85% Calm Calm -- 29.91 in1012.9 mb 0.00 in0.0 mm 0.00 in0.0 mm 0.00 in0.0 mm
02:10 AM 48.0°F8.9°C 43.7°F6.5°C 85% Calm Calm 0.7 mph1.1 kmh 29.91 in1012.9 mb 0.00 in0.0 mm 0.00 in0.0 mm 0.00 in0.0 mm
02:15 AM 48.0°F8.9°C 43.7°F6.5°C 85% Calm Calm -- 29.91 in1012.9 mb 0.00 in0.0 mm 0.00 in0.0 mm 0.00 in0.0 mm
02:20 AM 48.0°F8.9°C 43.7°F6.5°C 85% Calm Calm -- 29.91 in1012.9 mb 0.00 in0.0 mm 0.00 in0.0 mm 0.00 in0.0 mm
02:25 AM 48.0°F8.9°C 43.7°F6.5°C 85% Calm Calm -- 29.91 in1012.9 mb 0.00 in0.0 mm 0.00 in0.0 mm 0.00 in0.0 mm
02:30 AM 48.0°F8.9°C 43.7°F6.5°C 85% Calm Calm -- 29.91 in1012.9 mb 0.00 in0.0 mm 0.00 in0.0 mm 0.00 in0.0 mm
02:35 AM 48.1°F8.9°C 43.8°F6.6°C 85% 0.1 mph W0.2 kmh W 0.7 mph1.1 kmh 29.91 in1012.9 mb 0.00 in0.0 mm 0.00 in0.0 mm 0.00 in0.0 mm
02:40 AM 48.2°F9.0°C 43.9°F6.6°C 85% Calm Calm -- 29.91 in1012.9 mb 0.00 in0.0 mm 0.00 in0.0 mm 0.00 in0.0 mm
02:45 AM 48.2°F9.0°C 43.9°F6.6°C 85% Calm Calm -- 29.91 in1012.9 mb 0.00 in0.0 mm 0.00 in0.0 mm 0.00 in0.0 mm
02:50 AM 48.2°F9.0°C 43.9°F6.6°C 85% Calm Calm 0.7 mph1.1 kmh 29.91 in1012.9 mb 0.00 in0.0 mm 0.00 in0.0 mm 0.00 in0.0 mm
02:55 AM 48.3°F9.1°C 44.0°F6.7°C 85% 0.4 mph NNE0.6 kmh NNE 1.6 mph2.6 kmh 29.91 in1012.9 mb 0.00 in0.0 mm 0.00 in0.0 mm 0.00 in0.0 mm
03:00 AM 48.4°F9.1°C 44.1°F6.7°C 85% Calm Calm -- 29.92 in1013.2 mb 0.00 in0.0 mm 0.00 in0.0 mm 0.00 in0.0 mm
03:05 AM 48.4°F9.1°C 44.1°F6.7°C 85% Calm Calm -- 29.92 in1013.2 mb 0.00 in0.0 mm 0.00 in0.0 mm 0.00 in0.0 mm
03:10 AM 48.4°F9.1°C 44.1°F6.7°C 85% Calm Calm -- 29.91 in1012.9 mb 0.00 in0.0 mm 0.00 in0.0 mm 0.00 in0.0 mm
03:15 AM 48.4°F9.1°C 44.1°F6.7°C 85% Calm Calm -- 29.91 in1012.9 mb 0.00 in0.0 mm 0.00 in0.0 mm 0.00 in0.0 mm
03:20 AM 48.4°F9.1°C 44.1°F6.7°C 85% 0.1 mph NW0.2 kmh NW 1.6 mph2.6 kmh 29.91 in1012.9 mb 0.00 in0.0 mm 0.00 in0.0 mm 0.00 in0.0 mm
03:25 AM 48.4°F9.1°C 44.4°F6.9°C 86% 0.4 mph NW0.6 kmh NW 1.6 mph2.6 kmh 29.91 in1012.9 mb 0.00 in0.0 mm 0.00 in0.0 mm 0.00 in0.0 mm
03:30 AM 48.4°F9.1°C 44.4°F6.9°C 86% 0.2 mph S0.3 kmh S 1.6 mph2.6 kmh 29.91 in1012.9 mb 0.00 in0.0 mm 0.00 in0.0 mm 0.00 in0.0 mm
03:35 AM 48.4°F9.1°C 44.4°F6.9°C 86% Calm Calm -- 29.91 in1012.9 mb 0.00 in0.0 mm 0.00 in0.0 mm 0.00 in0.0 mm
03:40 AM 48.4°F9.1°C 44.4°F6.9°C 86% Calm Calm -- 29.91 in1012.9 mb 0.00 in0.0 mm 0.00 in0.0 mm 0.00 in0.0 mm
03:45 AM 48.4°F9.1°C 44.4°F6.9°C 86% 0.4 mph NE0.6 kmh NE 1.6 mph2.6 kmh 29.91 in1012.9 mb 0.00 in0.0 mm 0.00 in0.0 mm 0.00 in0.0 mm
03:50 AM 48.4°F9.1°C 44.4°F6.9°C 86% 0.7 mph NE1.1 kmh NE 1.6 mph2.6 kmh 29.91 in1012.9 mb 0.00 in0.0 mm 0.00 in0.0 mm 0.00 in0.0 mm
03:55 AM 48.2°F9.0°C 44.2°F6.8°C 86% 0.7 mph NE1.1 kmh NE 1.6 mph2.6 kmh 29.91 in1012.9 mb 0.00 in0.0 mm 0.00 in0.0 mm 0.00 in0.0 mm
04:00 AM 48.2°F9.0°C 44.2°F6.8°C 86% 1.0 mph E1.6 kmh E 1.6 mph2.6 kmh 29.91 in1012.9 mb 0.00 in0.0 mm 0.00 in0.0 mm 0.00 in0.0 mm
04:05 AM 48.2°F9.0°C 44.2°F6.8°C 86% 0.7 mph NE1.1 kmh NE 1.6 mph2.6 kmh 29.92 in1013.2 mb 0.00 in0.0 mm 0.00 in0.0 mm 0.00 in0.0 mm
04:10 AM 48.1°F8.9°C 44.1°F6.7°C 86% 0.7 mph NE1.1 kmh NE 1.6 mph2.6 kmh 29.92 in1013.2 mb 0.00 in0.0 mm 0.00 in0.0 mm 0.00 in0.0 mm
04:15 AM 48.0°F8.9°C 44.0°F6.7°C 86% 1.6 mph 2.6 kmh 2.2 mph3.5 kmh 29.92 in1013.2 mb 0.00 in0.0 mm 0.00 in0.0 mm 0.00 in0.0 mm
04:20 AM 48.2°F9.0°C 44.2°F6.8°C 86% 1.6 mph 2.6 kmh 2.2 mph3.5 kmh 29.92 in1013.2 mb 0.00 in0.0 mm 0.00 in0.0 mm 0.00 in0.0 mm
04:25 AM 48.2°F9.0°C 44.2°F6.8°C 86% 1.3 mph N2.1 kmh N 2.2 mph3.5 kmh 29.92 in1013.2 mb 0.00 in0.0 mm 0.00 in0.0 mm 0.01 in0.3 mm
04:30 AM 48.3°F9.1°C 44.3°F6.8°C 86% 0.2 mph E0.3 kmh E 1.6 mph2.6 kmh 29.92 in1013.2 mb 0.02 in0.5 mm 0.24 in6.1 mm 0.02 in0.5 mm
04:35 AM 48.4°F9.1°C 44.4°F6.9°C 86% Calm Calm -- 29.91 in1012.9 mb 0.02 in0.5 mm 0.00 in0.0 mm 0.03 in0.8 mm
04:40 AM 48.4°F9.1°C 44.4°F6.9°C 86% 0.6 mph W1.0 kmh W 3.1 mph5.0 kmh 29.91 in1012.9 mb 0.03 in0.8 mm 0.12 in3.0 mm 0.03 in0.8 mm
04:45 AM 48.3°F9.1°C 44.3°F6.8°C 86% 1.0 mph WNW1.6 kmh WNW 2.2 mph3.5 kmh 29.91 in1012.9 mb 0.03 in0.8 mm 0.00 in0.0 mm 0.04 in1.0 mm
04:50 AM 48.2°F9.0°C 44.2°F6.8°C 86% 0.3 mph SE0.5 kmh SE 1.6 mph2.6 kmh 29.91 in1012.9 mb 0.03 in0.8 mm 0.00 in0.0 mm 0.04 in1.0 mm
04:55 AM 48.2°F9.0°C 44.2°F6.8°C 86% 0.9 mph NE1.4 kmh NE 2.2 mph3.5 kmh 29.91 in1012.9 mb 0.03 in0.8 mm 0.00 in0.0 mm 0.04 in1.0 mm
05:00 AM 48.2°F9.0°C 44.2°F6.8°C 86% 1.9 mph NE3.1 kmh NE 3.1 mph5.0 kmh 29.91 in1012.9 mb 0.03 in0.8 mm 0.00 in0.0 mm 0.04 in1.0 mm
05:05 AM 48.2°F9.0°C 44.2°F6.8°C 86% 2.2 mph NE3.5 kmh NE 3.1 mph5.0 kmh 29.91 in1012.9 mb 0.03 in0.8 mm 0.00 in0.0 mm 0.04 in1.0 mm
05:10 AM 48.2°F9.0°C 44.2°F6.8°C 86% 0.9 mph NE1.4 kmh NE 3.1 mph5.0 kmh 29.91 in1012.9 mb 0.04 in1.0 mm 0.12 in3.0 mm 0.04 in1.0 mm
05:15 AM 48.1°F8.9°C 44.1°F6.7°C 86% 0.2 mph WSW0.3 kmh WSW 1.6 mph2.6 kmh 29.91 in1012.9 mb 0.04 in1.0 mm 0.00 in0.0 mm 0.04 in1.0 mm
05:20 AM 48.1°F8.9°C 44.1°F6.7°C 86% 1.5 mph WSW2.4 kmh WSW 3.1 mph5.0 kmh 29.91 in1012.9 mb 0.04 in1.0 mm 0.00 in0.0 mm 0.04 in1.0 mm
05:25 AM 48.2°F9.0°C 44.2°F6.8°C 86% 1.8 mph W2.9 kmh W 3.1 mph5.0 kmh 29.91 in1012.9 mb 0.03 in0.8 mm 0.00 in0.0 mm 0.04 in1.0 mm
05:30 AM 48.2°F9.0°C 44.2°F6.8°C 86% 1.0 mph W1.6 kmh W 2.2 mph3.5 kmh 29.91 in1012.9 mb 0.02 in0.5 mm 0.00 in0.0 mm 0.04 in1.0 mm
05:35 AM 48.2°F9.0°C 44.2°F6.8°C 86% 0.2 mph W0.3 kmh W 1.6 mph2.6 kmh 29.92 in1013.2 mb 0.01 in0.3 mm 0.00 in0.0 mm 0.04 in1.0 mm
05:40 AM 48.2°F9.0°C 44.2°F6.8°C 86% 0.4 mph W0.6 kmh W 0.7 mph1.1 kmh 29.92 in1013.2 mb 0.01 in0.3 mm 0.00 in0.0 mm 0.04 in1.0 mm
05:45 AM 48.2°F9.0°C 44.2°F6.8°C 86% 0.3 mph W0.5 kmh W 1.6 mph2.6 kmh 29.92 in1013.2 mb 0.00 in0.0 mm 0.00 in0.0 mm 0.04 in1.0 mm
05:50 AM 48.2°F9.0°C 44.2°F6.8°C 86% 0.2 mph W0.3 kmh W 1.6 mph2.6 kmh 29.92 in1013.2 mb 0.00 in0.0 mm 0.00 in0.0 mm 0.04 in1.0 mm
05:55 AM 48.3°F9.1°C 44.3°F6.8°C 86% 0.5 mph W0.8 kmh W 1.6 mph2.6 kmh 29.92 in1013.2 mb 0.00 in0.0 mm 0.00 in0.0 mm 0.04 in1.0 mm
06:00 AM 48.4°F9.1°C 44.4°F6.9°C 86% Calm Calm 0.7 mph1.1 kmh 29.92 in1013.2 mb 0.00 in0.0 mm 0.00 in0.0 mm 0.04 in1.0 mm
06:05 AM 48.4°F9.1°C 44.4°F6.9°C 86% Calm Calm 0.7 mph1.1 kmh 29.92 in1013.2 mb 0.00 in0.0 mm 0.00 in0.0 mm 0.04 in1.0 mm
06:10 AM 48.6°F9.2°C 44.7°F7.1°C 87% Calm Calm -- 29.92 in1013.2 mb 0.00 in0.0 mm 0.00 in0.0 mm 0.04 in1.0 mm
06:15 AM 48.6°F9.2°C 44.9°F7.2°C 87% Calm Calm -- 29.92 in1013.2 mb 0.00 in0.0 mm 0.00 in0.0 mm 0.04 in1.0 mm
06:20 AM 48.6°F9.2°C 44.9°F7.2°C 87% Calm Calm -- 29.92 in1013.2 mb 0.00 in0.0 mm 0.00 in0.0 mm 0.04 in1.0 mm
06:25 AM 48.6°F9.2°C 44.9°F7.2°C 87% 0.4 mph NNE0.6 kmh NNE 1.6 mph2.6 kmh 29.92 in1013.2 mb 0.00 in0.0 mm 0.00 in0.0 mm 0.04 in1.0 mm
06:30 AM 48.6°F9.2°C 44.9°F7.2°C 87% 0.7 mph NNE1.1 kmh NNE 1.6 mph2.6 kmh 29.92 in1013.2 mb 0.00 in0.0 mm 0.00 in0.0 mm 0.04 in1.0 mm
06:35 AM 48.7°F9.3°C 45.0°F7.2°C 87% 1.1 mph NNE1.8 kmh NNE 2.2 mph3.5 kmh 29.91 in1012.9 mb 0.00 in0.0 mm 0.00 in0.0 mm 0.04 in1.0 mm
06:40 AM 48.7°F9.3°C 45.0°F7.2°C 87% 1.7 mph N2.7 kmh N 3.1 mph5.0 kmh 29.92 in1013.2 mb 0.00 in0.0 mm 0.00 in0.0 mm 0.04 in1.0 mm
06:45 AM 48.7°F9.3°C 45.0°F7.2°C 87% 2.6 mph NE4.2 kmh NE 3.8 mph6.1 kmh 29.92 in1013.2 mb 0.00 in0.0 mm 0.00 in0.0 mm 0.04 in1.0 mm
06:50 AM 48.7°F9.3°C 45.0°F7.2°C 87% 2.2 mph NNE3.5 kmh NNE 3.1 mph5.0 kmh 29.92 in1013.2 mb 0.00 in0.0 mm 0.00 in0.0 mm 0.04 in1.0 mm
06:55 AM 48.7°F9.3°C 45.0°F7.2°C 87% 1.3 mph N2.1 kmh N 3.1 mph5.0 kmh 29.92 in1013.2 mb 0.00 in0.0 mm 0.00 in0.0 mm 0.04 in1.0 mm
07:00 AM 48.7°F9.3°C 45.0°F7.2°C 87% 0.8 mph W1.3 kmh W 2.2 mph3.5 kmh 29.93 in1013.5 mb 0.00 in0.0 mm 0.00 in0.0 mm 0.04 in1.0 mm
07:05 AM 48.7°F9.3°C 45.0°F7.2°C 87% 2.2 mph W3.5 kmh W 3.1 mph5.0 kmh 29.93 in1013.5 mb 0.00 in0.0 mm 0.00 in0.0 mm 0.04 in1.0 mm
07:10 AM 48.7°F9.3°C 45.0°F7.2°C 87% 0.8 mph W1.3 kmh W 3.1 mph5.0 kmh 29.93 in1013.5 mb 0.00 in0.0 mm 0.00 in0.0 mm 0.04 in1.0 mm
07:15 AM 48.7°F9.3°C 45.0°F7.2°C 87% 1.2 mph WSW1.9 kmh WSW 2.2 mph3.5 kmh 29.93 in1013.5 mb 0.00 in0.0 mm 0.00 in0.0 mm 0.04 in1.0 mm
07:20 AM 48.8°F9.3°C 45.1°F7.3°C 87% 1.1 mph W1.8 kmh W 2.2 mph3.5 kmh 29.92 in1013.2 mb 0.00 in0.0 mm 0.00 in0.0 mm 0.04 in1.0 mm
07:25 AM 48.9°F9.4°C 45.2°F7.3°C 87% Calm Calm 0.7 mph1.1 kmh 29.93 in1013.5 mb 0.00 in0.0 mm 0.00 in0.0 mm 0.04 in1.0 mm
07:30 AM 48.9°F9.4°C 45.2°F7.3°C 87% 0.6 mph W1.0 kmh W 1.6 mph2.6 kmh 29.93 in1013.5 mb 0.00 in0.0 mm 0.00 in0.0 mm 0.04 in1.0 mm
07:35 AM 48.9°F9.4°C 45.2°F7.3°C 87% 0.1 mph W0.2 kmh W 1.6 mph2.6 kmh 29.93 in1013.5 mb 0.00 in0.0 mm 0.00 in0.0 mm 0.04 in1.0 mm
07:40 AM 49.0°F9.4°C 45.3°F7.4°C 87% Calm Calm 0.7 mph1.1 kmh 29.93 in1013.5 mb 0.00 in0.0 mm 0.00 in0.0 mm 0.04 in1.0 mm
07:45 AM 49.1°F9.5°C 45.4°F7.4°C 87% Calm Calm 0.7 mph1.1 kmh 29.93 in1013.5 mb 0.00 in0.0 mm 0.00 in0.0 mm 0.04 in1.0 mm
07:50 AM 49.2°F9.6°C 45.8°F7.7°C 88% Calm Calm 0.7 mph1.1 kmh 29.94 in1013.9 mb 0.00 in0.0 mm 0.00 in0.0 mm 0.04 in1.0 mm
07:55 AM 49.3°F9.6°C 45.9°F7.7°C 88% Calm Calm -- 29.94 in1013.9 mb 0.00 in0.0 mm 0.00 in0.0 mm 0.04 in1.0 mm
08:00 AM 49.3°F9.6°C 45.9°F7.7°C 88% 0.1 mph W0.2 kmh W 0.7 mph1.1 kmh 29.94 in1013.9 mb 0.00 in0.0 mm 0.00 in0.0 mm 0.04 in1.0 mm
08:05 AM 49.3°F9.6°C 45.9°F7.7°C 88% Calm Calm -- 29.94 in1013.9 mb 0.00 in0.0 mm 0.00 in0.0 mm 0.04 in1.0 mm
08:10 AM 49.3°F9.6°C 45.9°F7.7°C 88% Calm Calm 0.7 mph1.1 kmh 29.94 in1013.9 mb 0.00 in0.0 mm 0.00 in0.0 mm 0.04 in1.0 mm
08:15 AM 49.3°F9.6°C 45.9°F7.7°C 88% Calm Calm 0.7 mph1.1 kmh 29.94 in1013.9 mb 0.00 in0.0 mm 0.00 in0.0 mm 0.04 in1.0 mm
08:20 AM 49.5°F9.7°C 46.1°F7.8°C 88% Calm Calm -- 29.94 in1013.9 mb 0.00 in0.0 mm 0.00 in0.0 mm 0.04 in1.0 mm
08:25 AM 49.5°F9.7°C 46.1°F7.8°C 88% Calm Calm 0.7 mph1.1 kmh 29.94 in1013.9 mb 0.00 in0.0 mm 0.00 in0.0 mm 0.04 in1.0 mm
08:30 AM 49.5°F9.7°C 46.1°F7.8°C 88% Calm Calm 0.7 mph1.1 kmh 29.94 in1013.9 mb 0.00 in0.0 mm 0.00 in0.0 mm 0.04 in1.0 mm
08:35 AM 49.5°F9.7°C 46.1°F7.8°C 88% Calm Calm -- 29.94 in1013.9 mb 0.00 in0.0 mm 0.00 in0.0 mm 0.04 in1.0 mm
08:40 AM 49.5°F9.7°C 46.1°F7.8°C 88% Calm Calm 0.7 mph1.1 kmh 29.94 in1013.9 mb 0.00 in0.0 mm 0.00 in0.0 mm 0.04 in1.0 mm
08:45 AM 49.5°F9.7°C 46.1°F7.8°C 88% 0.8 mph NE1.3 kmh NE 2.2 mph3.5 kmh 29.94 in1013.9 mb 0.00 in0.0 mm 0.00 in0.0 mm 0.04 in1.0 mm
08:50 AM 49.5°F9.7°C 46.1°F7.8°C 88% 0.5 mph NE0.8 kmh NE 2.2 mph3.5 kmh 29.94 in1013.9 mb 0.00 in0.0 mm 0.00 in0.0 mm 0.04 in1.0 mm
08:55 AM 49.6°F9.8°C 46.2°F7.9°C 88% Calm Calm -- 29.94 in1013.9 mb 0.00 in0.0 mm 0.00 in0.0 mm 0.04 in1.0 mm
09:00 AM 49.6°F9.8°C 46.2°F7.9°C 88% Calm Calm -- 29.94 in1013.9 mb 0.00 in0.0 mm 0.00 in0.0 mm 0.04 in1.0 mm
09:05 AM 49.7°F9.8°C 46.3°F7.9°C 88% Calm Calm -- 29.94 in1013.9 mb 0.00 in0.0 mm 0.00 in0.0 mm 0.04 in1.0 mm
09:10 AM 49.8°F9.9°C 46.4°F8.0°C 88% 0.3 mph W0.5 kmh W 1.6 mph2.6 kmh 29.94 in1013.9 mb 0.00 in0.0 mm 0.00 in0.0 mm 0.04 in1.0 mm
09:15 AM 49.8°F9.9°C 46.4°F8.0°C 88% 0.6 mph W1.0 kmh W 1.6 mph2.6 kmh 29.94 in1013.9 mb 0.00 in0.0 mm 0.00 in0.0 mm 0.04 in1.0 mm
09:20 AM 49.8°F9.9°C 46.4°F8.0°C 88% Calm Calm 0.7 mph1.1 kmh 29.94 in1013.9 mb 0.00 in0.0 mm 0.00 in0.0 mm 0.04 in1.0 mm
09:25 AM 49.9°F9.9°C 46.5°F8.1°C 88% 0.2 mph W0.3 kmh W 1.6 mph2.6 kmh 29.95 in1014.2 mb 0.00 in0.0 mm 0.00 in0.0 mm 0.04 in1.0 mm
09:30 AM 50.0°F10.0°C 46.9°F8.3°C 89% 0.6 mph SW1.0 kmh SW 1.6 mph2.6 kmh 29.94 in1013.9 mb 0.00 in0.0 mm 0.00 in0.0 mm 0.04 in1.0 mm
09:35 AM 50.0°F10.0°C 46.9°F8.3°C 89% 0.3 mph W0.5 kmh W 1.6 mph2.6 kmh 29.95 in1014.2 mb 0.00 in0.0 mm 0.00 in0.0 mm 0.04 in1.0 mm
09:40 AM 50.0°F10.0°C 46.9°F8.3°C 89% 0.6 mph W1.0 kmh W 1.6 mph2.6 kmh 29.95 in1014.2 mb 0.00 in0.0 mm 0.00 in0.0 mm 0.04 in1.0 mm
09:45 AM 50.0°F10.0°C 46.9°F8.3°C 89% Calm Calm 0.7 mph1.1 kmh 29.95 in1014.2 mb 0.00 in0.0 mm 0.00 in0.0 mm 0.04 in1.0 mm
09:50 AM 50.0°F10.0°C 46.9°F8.3°C 89% Calm Calm -- 29.95 in1014.2 mb 0.00 in0.0 mm 0.00 in0.0 mm 0.04 in1.0 mm
09:55 AM 50.0°F10.0°C 46.9°F8.3°C 89% Calm Calm -- 29.95 in1014.2 mb 0.00 in0.0 mm 0.00 in0.0 mm 0.04 in1.0 mm
10:00 AM 50.2°F10.1°C 47.0°F8.3°C 89% Calm Calm 0.7 mph1.1 kmh 29.95 in1014.2 mb 0.00 in0.0 mm 0.00 in0.0 mm 0.04 in1.0 mm
10:05 AM 50.2°F10.1°C 47.1°F8.4°C 89% Calm Calm -- 29.95 in1014.2 mb 0.00 in0.0 mm 0.00 in0.0 mm 0.04 in1.0 mm
10:10 AM 50.2°F10.1°C 47.1°F8.4°C 89% Calm Calm -- 29.95 in1014.2 mb 0.00 in0.0 mm 0.00 in0.0 mm 0.04 in1.0 mm
10:15 AM 50.3°F10.2°C 47.2°F8.4°C 89% Calm Calm -- 29.95 in1014.2 mb 0.01 in0.3 mm 0.12 in3.0 mm 0.05 in1.3 mm
10:20 AM 50.4°F10.2°C 47.2°F8.4°C 89% 0.2 mph W0.3 kmh W 1.6 mph2.6 kmh 29.95 in1014.2 mb 0.01 in0.3 mm 0.00 in0.0 mm 0.05 in1.3 mm
10:25 AM 50.5°F10.3°C 47.4°F8.6°C 89% 0.3 mph W0.5 kmh W 1.6 mph2.6 kmh 29.95 in1014.2 mb 0.01 in0.3 mm 0.00 in0.0 mm 0.05 in1.3 mm
10:30 AM 50.5°F10.3°C 47.4°F8.6°C 89% Calm Calm -- 29.95 in1014.2 mb 0.01 in0.3 mm 0.00 in0.0 mm 0.05 in1.3 mm
10:35 AM 50.5°F10.3°C 47.4°F8.6°C 89% Calm Calm 0.7 mph1.1 kmh 29.95 in1014.2 mb 0.01 in0.3 mm 0.00 in0.0 mm 0.05 in1.3 mm
10:40 AM 50.6°F10.3°C 47.5°F8.6°C 89% 0.7 mph SE1.1 kmh SE 1.6 mph2.6 kmh 29.95 in1014.2 mb 0.01 in0.3 mm 0.00 in0.0 mm 0.05 in1.3 mm
10:45 AM 50.7°F10.4°C 47.6°F8.7°C 89% 0.5 mph NE0.8 kmh NE 1.6 mph2.6 kmh 29.95 in1014.2 mb 0.01 in0.3 mm 0.00 in0.0 mm 0.05 in1.3 mm
10:50 AM 50.8°F10.4°C 47.7°F8.7°C 89% 0.1 mph W0.2 kmh W 1.6 mph2.6 kmh 29.95 in1014.2 mb 0.01 in0.3 mm 0.00 in0.0 mm 0.05 in1.3 mm
10:55 AM 50.9°F10.5°C 47.9°F8.8°C 90% 0.3 mph SW0.5 kmh SW 0.7 mph1.1 kmh 29.95 in1014.2 mb 0.01 in0.3 mm 0.00 in0.0 mm 0.05 in1.3 mm
11:00 AM 50.9°F10.5°C 48.1°F8.9°C 90% Calm Calm 0.7 mph1.1 kmh 29.95 in1014.2 mb 0.01 in0.3 mm 0.00 in0.0 mm 0.06 in1.5 mm
11:05 AM 51.1°F10.6°C 48.2°F9.0°C 90% Calm Calm 0.7 mph1.1 kmh 29.95 in1014.2 mb 0.01 in0.3 mm 0.00 in0.0 mm 0.06 in1.5 mm
11:10 AM 51.1°F10.6°C 48.3°F9.1°C 90% 0.3 mph SW0.5 kmh SW 1.6 mph2.6 kmh 29.95 in1014.2 mb 0.01 in0.3 mm 0.00 in0.0 mm 0.06 in1.5 mm
11:15 AM 51.3°F10.7°C 48.4°F9.1°C 90% 1.3 mph WSW2.1 kmh WSW 3.1 mph5.0 kmh 29.95 in1014.2 mb 0.01 in0.3 mm 0.00 in0.0 mm 0.06 in1.5 mm
11:20 AM 51.2°F10.7°C 48.4°F9.1°C 90% 0.9 mph SSW1.4 kmh SSW 2.2 mph3.5 kmh 29.95 in1014.2 mb 0.01 in0.3 mm 0.00 in0.0 mm 0.06 in1.5 mm
11:25 AM 51.1°F10.6°C 48.2°F9.0°C 90% Calm Calm 0.7 mph1.1 kmh 29.95 in1014.2 mb 0.01 in0.3 mm 0.00 in0.0 mm 0.06 in1.5 mm
11:30 AM 51.1°F10.6°C 48.2°F9.0°C 90% 0.6 mph SW1.0 kmh SW 1.6 mph2.6 kmh 29.95 in1014.2 mb 0.00 in0.0 mm 0.00 in0.0 mm 0.06 in1.5 mm
11:35 AM 51.1°F10.6°C 48.2°F9.0°C 90% 0.2 mph SW0.3 kmh SW 1.6 mph2.6 kmh 29.95 in1014.2 mb 0.00 in0.0 mm 0.00 in0.0 mm 0.06 in1.5 mm
11:40 AM 51.1°F10.6°C 48.2°F9.0°C 90% Calm Calm 0.7 mph1.1 kmh 29.95 in1014.2 mb 0.00 in0.0 mm 0.00 in0.0 mm 0.06 in1.5 mm
11:45 AM 51.1°F10.6°C 48.3°F9.1°C 90% 0.2 mph W0.3 kmh W 1.6 mph2.6 kmh 29.95 in1014.2 mb 0.00 in0.0 mm 0.00 in0.0 mm 0.06 in1.5 mm
11:50 AM 51.3°F10.7°C 48.5°F9.2°C 90% 1.1 mph WSW1.8 kmh WSW 2.2 mph3.5 kmh 29.95 in1014.2 mb 0.00 in0.0 mm 0.00 in0.0 mm 0.06 in1.5 mm
11:55 AM 51.4°F10.8°C 48.6°F9.2°C 90% 0.5 mph SW0.8 kmh SW 1.6 mph2.6 kmh 29.95 in1014.2 mb 0.00 in0.0 mm 0.00 in0.0 mm 0.06 in1.5 mm
12:00 PM 51.6°F10.9°C 48.7°F9.3°C 90% 0.6 mph NE1.0 kmh NE 2.2 mph3.5 kmh 29.94 in1013.9 mb 0.00 in0.0 mm 0.00 in0.0 mm 0.06 in1.5 mm
12:05 PM 51.6°F10.9°C 48.8°F9.3°C 90% 1.6 mph NE2.6 kmh NE 2.2 mph3.5 kmh 29.94 in1013.9 mb 0.00 in0.0 mm 0.00 in0.0 mm 0.06 in1.5 mm
12:10 PM 51.8°F11.0°C 48.9°F9.4°C 90% 1.9 mph N3.1 kmh N 3.1 mph5.0 kmh 29.94 in1013.9 mb 0.00 in0.0 mm 0.00 in0.0 mm 0.06 in1.5 mm
12:15 PM 52.0°F11.1°C 49.2°F9.6°C 90% 2.6 mph W4.2 kmh W 4.5 mph7.2 kmh 29.94 in1013.9 mb 0.00 in0.0 mm 0.00 in0.0 mm 0.06 in1.5 mm
12:20 PM 52.3°F11.3°C 49.4°F9.7°C 90% 2.3 mph WSW3.7 kmh WSW 4.5 mph7.2 kmh 29.94 in1013.9 mb 0.00 in0.0 mm 0.00 in0.0 mm 0.06 in1.5 mm
12:25 PM 52.3°F11.3°C 49.5°F9.7°C 90% 0.4 mph SW0.6 kmh SW 1.6 mph2.6 kmh 29.93 in1013.5 mb 0.00 in0.0 mm 0.00 in0.0 mm 0.06 in1.5 mm
12:30 PM 52.4°F11.3°C 49.5°F9.7°C 90% 0.1 mph 0.2 kmh 1.6 mph2.6 kmh 29.93 in1013.5 mb 0.00 in0.0 mm 0.00 in0.0 mm 0.06 in1.5 mm
12:35 PM 52.5°F11.4°C 49.7°F9.8°C 90% 0.2 mph 0.3 kmh 0.7 mph1.1 kmh 29.93 in1013.5 mb 0.00 in0.0 mm 0.00 in0.0 mm 0.06 in1.5 mm
12:40 PM 52.6°F11.4°C 49.7°F9.8°C 90% Calm Calm 0.7 mph1.1 kmh 29.93 in1013.5 mb 0.00 in0.0 mm 0.00 in0.0 mm 0.06 in1.5 mm
12:45 PM 52.7°F11.5°C 49.9°F9.9°C 90% 0.1 mph W0.2 kmh W 1.6 mph2.6 kmh 29.93 in1013.5 mb 0.00 in0.0 mm 0.00 in0.0 mm 0.06 in1.5 mm
12:50 PM 52.9°F11.6°C 50.2°F10.1°C 90% 0.6 mph W1.0 kmh W 1.6 mph2.6 kmh 29.94 in1013.9 mb 0.00 in0.0 mm 0.00 in0.0 mm 0.06 in1.5 mm
12:55 PM 52.9°F11.6°C 50.4°F10.2°C 91% Calm Calm 0.7 mph1.1 kmh 29.93 in1013.5 mb 0.00 in0.0 mm 0.00 in0.0 mm 0.06 in1.5 mm
01:00 PM 53.1°F11.7°C 50.5°F10.3°C 91% 0.6 mph NNW1.0 kmh NNW 2.2 mph3.5 kmh 29.93 in1013.5 mb 0.00 in0.0 mm 0.00 in0.0 mm 0.06 in1.5 mm
01:05 PM 53.3°F11.8°C 50.7°F10.4°C 91% 1.1 mph NW1.8 kmh NW 3.1 mph5.0 kmh 29.93 in1013.5 mb 0.00 in0.0 mm 0.00 in0.0 mm 0.06 in1.5 mm
01:10 PM 53.4°F11.9°C 50.9°F10.5°C 91% 2.2 mph WNW3.5 kmh WNW 3.8 mph6.1 kmh 29.93 in1013.5 mb 0.00 in0.0 mm 0.00 in0.0 mm 0.06 in1.5 mm
01:15 PM 53.5°F11.9°C 51.0°F10.6°C 91% 1.8 mph NW2.9 kmh NW 2.2 mph3.5 kmh 29.93 in1013.5 mb 0.00 in0.0 mm 0.00 in0.0 mm 0.06 in1.5 mm
01:20 PM 53.7°F12.1°C 51.2°F10.7°C 91% 1.2 mph NW1.9 kmh NW 2.2 mph3.5 kmh 29.93 in1013.5 mb 0.00 in0.0 mm 0.00 in0.0 mm 0.06 in1.5 mm
01:25 PM 53.8°F12.1°C 51.2°F10.7°C 91% 1.2 mph NW1.9 kmh NW 2.2 mph3.5 kmh 29.93 in1013.5 mb 0.00 in0.0 mm 0.00 in0.0 mm 0.06 in1.5 mm
01:30 PM 53.9°F12.2°C 51.3°F10.7°C 91% 0.3 mph W0.5 kmh W 1.6 mph2.6 kmh 29.93 in1013.5 mb 0.00 in0.0 mm 0.00 in0.0 mm 0.06 in1.5 mm
01:35 PM 53.9°F12.2°C 51.3°F10.7°C 91% 0.9 mph W1.4 kmh W 2.2 mph3.5 kmh 29.93 in1013.5 mb 0.00 in0.0 mm 0.00 in0.0 mm 0.06 in1.5 mm
01:40 PM 53.8°F12.1°C 51.2°F10.7°C 91% 0.2 mph SW0.3 kmh SW 1.6 mph2.6 kmh 29.93 in1013.5 mb 0.00 in0.0 mm 0.00 in0.0 mm 0.06 in1.5 mm
01:45 PM 53.9°F12.2°C 51.3°F10.7°C 91% 0.4 mph SW0.6 kmh SW 1.6 mph2.6 kmh 29.94 in1013.9 mb 0.00 in0.0 mm 0.00 in0.0 mm 0.06 in1.5 mm
01:50 PM 53.8°F12.1°C 51.2°F10.7°C 91% 1.0 mph NNE1.6 kmh NNE 2.2 mph3.5 kmh 29.94 in1013.9 mb 0.00 in0.0 mm 0.00 in0.0 mm 0.06 in1.5 mm
01:55 PM 53.9°F12.2°C 51.4°F10.8°C 91% 1.7 mph SSW2.7 kmh SSW 3.8 mph6.1 kmh 29.94 in1013.9 mb 0.00 in0.0 mm 0.00 in0.0 mm 0.06 in1.5 mm
02:00 PM 54.0°F12.2°C 51.4°F10.8°C 91% 5.8 mph S9.3 kmh S 11.4 mph18.3 kmh 29.94 in1013.9 mb 0.00 in0.0 mm 0.00 in0.0 mm 0.06 in1.5 mm
02:05 PM 54.0°F12.2°C 51.4°F10.8°C 91% 6.9 mph S11.1 kmh S 9.2 mph14.8 kmh 29.94 in1013.9 mb 0.00 in0.0 mm 0.00 in0.0 mm 0.06 in1.5 mm
02:10 PM 54.1°F12.3°C 51.5°F10.8°C 91% 4.6 mph S7.4 kmh S 9.2 mph14.8 kmh 29.94 in1013.9 mb 0.00 in0.0 mm 0.00 in0.0 mm 0.06 in1.5 mm
02:15 PM 54.3°F12.4°C 51.7°F10.9°C 91% 2.6 mph SW4.2 kmh SW 4.5 mph7.2 kmh 29.94 in1013.9 mb 0.00 in0.0 mm 0.00 in0.0 mm 0.06 in1.5 mm
02:20 PM 54.3°F12.4°C 51.7°F10.9°C 91% 3.5 mph S5.6 kmh S 5.4 mph8.7 kmh 29.94 in1013.9 mb 0.00 in0.0 mm 0.00 in0.0 mm 0.06 in1.5 mm
02:25 PM 54.4°F12.4°C 51.8°F11.0°C 91% 3.2 mph S5.1 kmh S 4.5 mph7.2 kmh 29.94 in1013.9 mb 0.00 in0.0 mm 0.00 in0.0 mm 0.06 in1.5 mm
02:30 PM 54.4°F12.4°C 51.9°F11.1°C 91% 2.5 mph SW4.0 kmh SW 4.5 mph7.2 kmh 29.94 in1013.9 mb 0.00 in0.0 mm 0.00 in0.0 mm 0.06 in1.5 mm
02:35 PM 54.5°F12.5°C 51.9°F11.1°C 91% 0.8 mph SE1.3 kmh SE 5.4 mph8.7 kmh 29.94 in1013.9 mb 0.00 in0.0 mm 0.00 in0.0 mm 0.06 in1.5 mm
02:40 PM 54.5°F12.5°C 51.9°F11.1°C 91% 2.9 mph SSE4.7 kmh SSE 5.4 mph8.7 kmh 29.94 in1013.9 mb 0.00 in0.0 mm 0.00 in0.0 mm 0.06 in1.5 mm
02:45 PM 54.4°F12.4°C 51.9°F11.1°C 91% 2.7 mph SSW4.3 kmh SSW 3.8 mph6.1 kmh 29.94 in1013.9 mb 0.00 in0.0 mm 0.00 in0.0 mm 0.06 in1.5 mm
02:50 PM 54.3°F12.4°C 51.7°F10.9°C 91% 2.3 mph S3.7 kmh S 3.8 mph6.1 kmh 29.94 in1013.9 mb 0.00 in0.0 mm 0.00 in0.0 mm 0.06 in1.5 mm
02:55 PM 54.3°F12.4°C 51.7°F10.9°C 91% 2.4 mph SSE3.9 kmh SSE 4.5 mph7.2 kmh 29.94 in1013.9 mb 0.00 in0.0 mm 0.00 in0.0 mm 0.06 in1.5 mm
03:00 PM 54.3°F12.4°C 51.7°F10.9°C 91% 3.0 mph SSE4.8 kmh SSE 4.5 mph7.2 kmh 29.94 in1013.9 mb 0.00 in0.0 mm 0.00 in0.0 mm 0.06 in1.5 mm
03:05 PM 54.3°F12.4°C 51.7°F10.9°C 91% 3.6 mph SE5.8 kmh SE 6.9 mph11.1 kmh 29.94 in1013.9 mb 0.00 in0.0 mm 0.00 in0.0 mm 0.06 in1.5 mm
03:10 PM 54.3°F12.4°C 51.4°F10.8°C 90% 5.0 mph E8.0 kmh E 9.2 mph14.8 kmh 29.93 in1013.5 mb 0.00 in0.0 mm 0.00 in0.0 mm 0.06 in1.5 mm
03:15 PM 54.1°F12.3°C 51.3°F10.7°C 90% 6.3 mph SE10.1 kmh SE 9.8 mph15.8 kmh 29.94 in1013.9 mb 0.00 in0.0 mm 0.00 in0.0 mm 0.06 in1.5 mm
03:20 PM 54.1°F12.3°C 51.3°F10.7°C 90% 4.5 mph SSW7.2 kmh SSW 7.6 mph12.2 kmh 29.94 in1013.9 mb 0.00 in0.0 mm 0.00 in0.0 mm 0.06 in1.5 mm
03:25 PM 54.1°F12.3°C 51.3°F10.7°C 90% 3.5 mph SSW5.6 kmh SSW 6.9 mph11.1 kmh 29.94 in1013.9 mb 0.00 in0.0 mm 0.00 in0.0 mm 0.06 in1.5 mm
03:30 PM 54.1°F12.3°C 51.3°F10.7°C 90% 3.5 mph SSE5.6 kmh SSE 6.9 mph11.1 kmh 29.94 in1013.9 mb 0.00 in0.0 mm 0.00 in0.0 mm 0.06 in1.5 mm
03:35 PM 54.1°F12.3°C 51.3°F10.7°C 90% 4.8 mph S7.7 kmh S 6.9 mph11.1 kmh 29.95 in1014.2 mb 0.00 in0.0 mm 0.00 in0.0 mm 0.06 in1.5 mm
03:40 PM 54.1°F12.3°C 51.3°F10.7°C 90% 4.5 mph SSW7.2 kmh SSW 7.6 mph12.2 kmh 29.95 in1014.2 mb 0.00 in0.0 mm 0.00 in0.0 mm 0.06 in1.5 mm
03:45 PM 54.1°F12.3°C 51.3°F10.7°C 90% 2.4 mph SSW3.9 kmh SSW 5.4 mph8.7 kmh 29.95 in1014.2 mb 0.00 in0.0 mm 0.00 in0.0 mm 0.06 in1.5 mm
03:50 PM 54.1°F12.3°C 51.3°F10.7°C 90% 4.0 mph SE6.4 kmh SE 6.0 mph9.7 kmh 29.95 in1014.2 mb 0.00 in0.0 mm 0.00 in0.0 mm 0.06 in1.5 mm
03:55 PM 54.1°F12.3°C 51.0°F10.6°C 89% 3.4 mph SSE5.5 kmh SSE 7.6 mph12.2 kmh 29.95 in1014.2 mb 0.00 in0.0 mm 0.00 in0.0 mm 0.06 in1.5 mm
04:00 PM 54.1°F12.3°C 51.0°F10.6°C 89% 3.7 mph S6.0 kmh S 7.6 mph12.2 kmh 29.95 in1014.2 mb 0.00 in0.0 mm 0.00 in0.0 mm 0.06 in1.5 mm
04:05 PM 54.1°F12.3°C 51.0°F10.6°C 89% 5.4 mph S8.7 kmh S 7.6 mph12.2 kmh 29.95 in1014.2 mb 0.00 in0.0 mm 0.00 in0.0 mm 0.06 in1.5 mm
04:10 PM 54.1°F12.3°C 51.0°F10.6°C 89% 4.6 mph S7.4 kmh S 7.6 mph12.2 kmh 29.95 in1014.2 mb 0.00 in0.0 mm 0.00 in0.0 mm 0.06 in1.5 mm
04:15 PM 54.1°F12.3°C 51.0°F10.6°C 89% 3.7 mph SSW6.0 kmh SSW 6.0 mph9.7 kmh 29.95 in1014.2 mb 0.00 in0.0 mm 0.00 in0.0 mm 0.06 in1.5 mm
04:20 PM 54.1°F12.3°C 51.0°F10.6°C 89% 3.3 mph SSW5.3 kmh SSW 6.9 mph11.1 kmh 29.95 in1014.2 mb 0.00 in0.0 mm 0.00 in0.0 mm 0.06 in1.5 mm
04:25 PM 54.1°F12.3°C 51.0°F10.6°C 89% 4.5 mph SSE7.2 kmh SSE 6.0 mph9.7 kmh 29.95 in1014.2 mb 0.00 in0.0 mm 0.00 in0.0 mm 0.06 in1.5 mm
04:30 PM 54.1°F12.3°C 50.8°F10.4°C 88% 4.2 mph S6.8 kmh S 5.4 mph8.7 kmh 29.96 in1014.6 mb 0.00 in0.0 mm 0.00 in0.0 mm 0.06 in1.5 mm
04:35 PM 54.1°F12.3°C 50.7°F10.4°C 88% 4.3 mph S6.9 kmh S 6.0 mph9.7 kmh 29.96 in1014.6 mb 0.00 in0.0 mm 0.00 in0.0 mm 0.06 in1.5 mm
04:40 PM 54.1°F12.3°C 50.7°F10.4°C 88% 2.6 mph SSE4.2 kmh SSE 4.5 mph7.2 kmh 29.95 in1014.2 mb 0.00 in0.0 mm 0.00 in0.0 mm 0.06 in1.5 mm
04:45 PM 54.1°F12.3°C 50.7°F10.4°C 88% 1.9 mph S3.1 kmh S 3.1 mph5.0 kmh 29.96 in1014.6 mb 0.00 in0.0 mm 0.00 in0.0 mm 0.06 in1.5 mm
04:50 PM 54.1°F12.3°C 50.6°F10.3°C 88% 1.5 mph SW2.4 kmh SW 6.9 mph11.1 kmh 29.96 in1014.6 mb 0.00 in0.0 mm 0.00 in0.0 mm 0.06 in1.5 mm
04:55 PM 54.0°F12.2°C 50.5°F10.3°C 88% 4.5 mph S7.2 kmh S 6.9 mph11.1 kmh 29.96 in1014.6 mb 0.00 in0.0 mm 0.00 in0.0 mm 0.06 in1.5 mm
05:00 PM 54.0°F12.2°C 50.5°F10.3°C 88% 4.6 mph S7.4 kmh S 7.6 mph12.2 kmh 29.96 in1014.6 mb 0.00 in0.0 mm 0.00 in0.0 mm 0.06 in1.5 mm
05:05 PM 54.0°F12.2°C 50.6°F10.3°C 88% 6.5 mph S10.5 kmh S 9.2 mph14.8 kmh 29.96 in1014.6 mb 0.00 in0.0 mm 0.00 in0.0 mm 0.06 in1.5 mm
05:10 PM 54.1°F12.3°C 50.7°F10.4°C 88% 4.4 mph SSE7.1 kmh SSE 6.0 mph9.7 kmh 29.96 in1014.6 mb 0.00 in0.0 mm 0.00 in0.0 mm 0.06 in1.5 mm
05:15 PM 54.1°F12.3°C 50.7°F10.4°C 88% 4.9 mph S7.9 kmh S 7.6 mph12.2 kmh 29.96 in1014.6 mb 0.00 in0.0 mm 0.00 in0.0 mm 0.06 in1.5 mm
05:20 PM 54.1°F12.3°C 50.7°F10.4°C 88% 6.6 mph S10.6 kmh S 9.8 mph15.8 kmh 29.96 in1014.6 mb 0.00 in0.0 mm 0.00 in0.0 mm 0.06 in1.5 mm
05:25 PM 54.1°F12.3°C 50.7°F10.4°C 88% 7.4 mph S11.9 kmh S 12.1 mph19.5 kmh 29.96 in1014.6 mb 0.00 in0.0 mm 0.00 in0.0 mm 0.06 in1.5 mm
05:30 PM 54.1°F12.3°C 50.6°F10.3°C 88% 4.6 mph S7.4 kmh S 8.3 mph13.4 kmh 29.97 in1014.9 mb 0.00 in0.0 mm 0.00 in0.0 mm 0.06 in1.5 mm
05:35 PM 54.1°F12.3°C 50.4°F10.2°C 87% 4.2 mph S6.8 kmh S 6.9 mph11.1 kmh 29.96 in1014.6 mb 0.00 in0.0 mm 0.00 in0.0 mm 0.06 in1.5 mm
05:40 PM 54.1°F12.3°C 50.4°F10.2°C 87% 4.3 mph SW6.9 kmh SW 8.3 mph13.4 kmh 29.97 in1014.9 mb 0.00 in0.0 mm 0.00 in0.0 mm 0.06 in1.5 mm
05:45 PM 54.1°F12.3°C 50.4°F10.2°C 87% 4.1 mph SW6.6 kmh SW 6.0 mph9.7 kmh 29.98 in1015.2 mb 0.00 in0.0 mm 0.00 in0.0 mm 0.06 in1.5 mm
05:50 PM 54.0°F12.2°C 50.2°F10.1°C 87% 2.5 mph SW4.0 kmh SW 4.5 mph7.2 kmh 29.98 in1015.2 mb 0.00 in0.0 mm 0.00 in0.0 mm 0.06 in1.5 mm
05:55 PM 54.0°F12.2°C 50.1°F10.1°C 87% 3.1 mph SW5.0 kmh SW 4.5 mph7.2 kmh 29.98 in1015.2 mb 0.00 in0.0 mm 0.00 in0.0 mm 0.06 in1.5 mm
06:00 PM 54.0°F12.2°C 49.9°F9.9°C 86% 1.8 mph W2.9 kmh W 3.1 mph5.0 kmh 29.98 in1015.2 mb 0.00 in0.0 mm 0.00 in0.0 mm 0.06 in1.5 mm
06:05 PM 54.0°F12.2°C 49.9°F9.9°C 86% 2.2 mph W3.5 kmh W 3.1 mph5.0 kmh 29.98 in1015.2 mb 0.00 in0.0 mm 0.00 in0.0 mm 0.06 in1.5 mm
06:10 PM 54.0°F12.2°C 50.0°F10.0°C 87% 3.7 mph WSW6.0 kmh WSW 6.9 mph11.1 kmh 29.98 in1015.2 mb 0.00 in0.0 mm 0.00 in0.0 mm 0.06 in1.5 mm
06:15 PM 54.0°F12.2°C 50.2°F10.1°C 87% 3.7 mph SSW6.0 kmh SSW 5.4 mph8.7 kmh 29.97 in1014.9 mb 0.00 in0.0 mm 0.00 in0.0 mm 0.06 in1.5 mm
06:20 PM 54.0°F12.2°C 50.2°F10.1°C 87% 3.2 mph SSW5.1 kmh SSW 6.0 mph9.7 kmh 29.98 in1015.2 mb 0.00 in0.0 mm 0.00 in0.0 mm 0.06 in1.5 mm
06:25 PM 54.0°F12.2°C 50.2°F10.1°C 87% 4.0 mph SSW6.4 kmh SSW 6.9 mph11.1 kmh 29.98 in1015.2 mb 0.00 in0.0 mm 0.00 in0.0 mm 0.06 in1.5 mm
06:30 PM 54.0°F12.2°C 50.1°F10.1°C 87% 3.4 mph SW5.5 kmh SW 5.4 mph8.7 kmh 29.98 in1015.2 mb 0.00 in0.0 mm 0.00 in0.0 mm 0.06 in1.5 mm
06:35 PM 54.0°F12.2°C 49.9°F9.9°C 86% 4.4 mph SSW7.1 kmh SSW 7.6 mph12.2 kmh 29.98 in1015.2 mb 0.00 in0.0 mm 0.00 in0.0 mm 0.06 in1.5 mm
06:40 PM 54.0°F12.2°C 49.9°F9.9°C 86% 3.2 mph S5.1 kmh S 5.4 mph8.7 kmh 29.98 in1015.2 mb 0.00 in0.0 mm 0.00 in0.0 mm 0.06 in1.5 mm
06:45 PM 54.0°F12.2°C 49.9°F9.9°C 86% 4.6 mph S7.4 kmh S 6.9 mph11.1 kmh 29.98 in1015.2 mb 0.00 in0.0 mm 0.00 in0.0 mm 0.06 in1.5 mm
06:50 PM 54.0°F12.2°C 49.9°F9.9°C 86% 4.6 mph S7.4 kmh S 9.8 mph15.8 kmh 29.98 in1015.2 mb 0.00 in0.0 mm 0.00 in0.0 mm 0.06 in1.5 mm
06:55 PM 54.0°F12.2°C 49.9°F9.9°C 86% 5.8 mph SE9.3 kmh SE 9.8 mph15.8 kmh 29.98 in1015.2 mb 0.00 in0.0 mm 0.00 in0.0 mm 0.06 in1.5 mm
07:00 PM 54.1°F12.3°C 50.0°F10.0°C 86% 5.7 mph S9.2 kmh S 9.2 mph14.8 kmh 29.97 in1014.9 mb 0.00 in0.0 mm 0.00 in0.0 mm 0.06 in1.5 mm
07:05 PM 54.1°F12.3°C 49.9°F9.9°C 86% 3.2 mph S5.1 kmh S 6.0 mph9.7 kmh 29.97 in1014.9 mb 0.00 in0.0 mm 0.00 in0.0 mm 0.06 in1.5 mm
07:10 PM 54.1°F12.3°C 49.7°F9.8°C 85% 2.7 mph SW4.3 kmh SW 4.5 mph7.2 kmh 29.98 in1015.2 mb 0.00 in0.0 mm 0.00 in0.0 mm 0.06 in1.5 mm
07:15 PM 54.0°F12.2°C 49.6°F9.8°C 85% 3.4 mph SW5.5 kmh SW 6.9 mph11.1 kmh 29.98 in1015.2 mb 0.00 in0.0 mm 0.00 in0.0 mm 0.06 in1.5 mm
07:20 PM 53.9°F12.2°C 49.5°F9.7°C 85% 3.0 mph SSW4.8 kmh SSW 6.0 mph9.7 kmh 29.98 in1015.2 mb 0.00 in0.0 mm 0.00 in0.0 mm 0.06 in1.5 mm
07:25 PM 53.8°F12.1°C 49.4°F9.7°C 85% 4.9 mph SSW7.9 kmh SSW 9.8 mph15.8 kmh 29.98 in1015.2 mb 0.00 in0.0 mm 0.00 in0.0 mm 0.06 in1.5 mm
07:30 PM 53.8°F12.1°C 49.4°F9.7°C 85% 3.6 mph SW5.8 kmh SW 6.0 mph9.7 kmh 29.98 in1015.2 mb 0.00 in0.0 mm 0.00 in0.0 mm 0.06 in1.5 mm
07:35 PM 53.8°F12.1°C 49.3°F9.6°C 85% 5.8 mph S9.3 kmh S 9.8 mph15.8 kmh 29.98 in1015.2 mb 0.00 in0.0 mm 0.00 in0.0 mm 0.06 in1.5 mm
07:40 PM 54.0°F12.2°C 49.2°F9.6°C 84% 7.3 mph S11.7 kmh S 9.2 mph14.8 kmh 29.98 in1015.2 mb 0.00 in0.0 mm 0.00 in0.0 mm 0.06 in1.5 mm
07:45 PM 54.0°F12.2°C 49.2°F9.6°C 84% 9.0 mph S14.5 kmh S 13.6 mph21.9 kmh 29.98 in1015.2 mb 0.00 in0.0 mm 0.00 in0.0 mm 0.06 in1.5 mm
07:50 PM 54.1°F12.3°C 49.3°F9.6°C 84% 7.3 mph S11.7 kmh S 12.1 mph19.5 kmh 29.98 in1015.2 mb 0.00 in0.0 mm 0.00 in0.0 mm 0.06 in1.5 mm
07:55 PM 54.1°F12.3°C 49.4°F9.7°C 84% 6.1 mph S9.8 kmh S 9.2 mph14.8 kmh 29.98 in1015.2 mb 0.00 in0.0 mm 0.00 in0.0 mm 0.06 in1.5 mm
08:00 PM 54.2°F12.3°C 49.5°F9.7°C 84% 7.2 mph S11.6 kmh S 11.4 mph18.3 kmh 29.98 in1015.2 mb 0.00 in0.0 mm 0.00 in0.0 mm 0.06 in1.5 mm
08:05 PM 54.3°F12.4°C 49.6°F9.8°C 84% 6.0 mph S9.7 kmh S 6.9 mph11.1 kmh 29.98 in1015.2 mb 0.00 in0.0 mm 0.00 in0.0 mm 0.06 in1.5 mm
08:10 PM 54.4°F12.4°C 49.5°F9.7°C 83% 6.6 mph SSE10.6 kmh SSE 10.7 mph17.2 kmh 29.98 in1015.2 mb 0.00 in0.0 mm 0.00 in0.0 mm 0.06 in1.5 mm
08:15 PM 54.5°F12.5°C 49.4°F9.7°C 83% 6.8 mph S10.9 kmh S 11.4 mph18.3 kmh 29.98 in1015.2 mb 0.00 in0.0 mm 0.00 in0.0 mm 0.06 in1.5 mm
08:20 PM 54.5°F12.5°C 49.4°F9.7°C 83% 8.6 mph SSE13.8 kmh SSE 11.4 mph18.3 kmh 29.98 in1015.2 mb 0.00 in0.0 mm 0.00 in0.0 mm 0.06 in1.5 mm
08:25 PM 54.5°F12.5°C 49.4°F9.7°C 83% 8.2 mph SSE13.2 kmh SSE 12.1 mph19.5 kmh 29.98 in1015.2 mb 0.00 in0.0 mm 0.00 in0.0 mm 0.06 in1.5 mm
08:30 PM 54.6°F12.6°C 49.6°F9.8°C 83% 7.0 mph S11.3 kmh S 9.8 mph15.8 kmh 29.98 in1015.2 mb 0.00 in0.0 mm 0.00 in0.0 mm 0.06 in1.5 mm
08:35 PM 54.7°F12.6°C 49.6°F9.8°C 83% 6.6 mph SE10.6 kmh SE 9.8 mph15.8 kmh 29.98 in1015.2 mb 0.00 in0.0 mm 0.00 in0.0 mm 0.06 in1.5 mm
08:40 PM 54.7°F12.6°C 49.6°F9.8°C 83% 7.6 mph SE12.2 kmh SE 10.7 mph17.2 kmh 29.98 in1015.2 mb 0.00 in0.0 mm 0.00 in0.0 mm 0.06 in1.5 mm
08:45 PM 54.7°F12.6°C 49.6°F9.8°C 83% 6.6 mph S10.6 kmh S 9.2 mph14.8 kmh 29.98 in1015.2 mb 0.00 in0.0 mm 0.00 in0.0 mm 0.06 in1.5 mm
08:50 PM 54.7°F12.6°C 49.6°F9.8°C 83% 10.0 mph S16.1 kmh S 15.9 mph25.6 kmh 29.99 in1015.6 mb 0.00 in0.0 mm 0.00 in0.0 mm 0.06 in1.5 mm
08:55 PM 54.9°F12.7°C 49.1°F9.5°C 81% 10.6 mph S17.1 kmh S 13.6 mph21.9 kmh 29.99 in1015.6 mb 0.00 in0.0 mm 0.00 in0.0 mm 0.06 in1.5 mm
09:00 PM 54.9°F12.7°C 49.1°F9.5°C 81% 8.7 mph S14.0 kmh S 14.5 mph23.3 kmh 29.99 in1015.6 mb 0.00 in0.0 mm 0.00 in0.0 mm 0.06 in1.5 mm
09:05 PM 54.9°F12.7°C 49.2°F9.6°C 81% 7.4 mph S11.9 kmh S 13.6 mph21.9 kmh 29.98 in1015.2 mb 0.00 in0.0 mm 0.00 in0.0 mm 0.06 in1.5 mm
09:10 PM 55.0°F12.8°C 49.3°F9.6°C 81% 8.8 mph SSE14.2 kmh SSE 12.1 mph19.5 kmh 29.98 in1015.2 mb 0.00 in0.0 mm 0.00 in0.0 mm 0.06 in1.5 mm
09:15 PM 55.0°F12.8°C 49.3°F9.6°C 81% 9.2 mph S14.8 kmh S 12.1 mph19.5 kmh 29.98 in1015.2 mb 0.00 in0.0 mm 0.00 in0.0 mm 0.06 in1.5 mm
09:20 PM 55.0°F12.8°C 49.3°F9.6°C 81% 8.5 mph S13.7 kmh S 13.6 mph21.9 kmh 29.98 in1015.2 mb 0.00 in0.0 mm 0.00 in0.0 mm 0.06 in1.5 mm
09:25 PM 55.0°F12.8°C 49.0°F9.4°C 80% 9.0 mph SE14.5 kmh SE 13.6 mph21.9 kmh 29.98 in1015.2 mb 0.00 in0.0 mm 0.00 in0.0 mm 0.06 in1.5 mm
09:30 PM 55.0°F12.8°C 49.0°F9.4°C 80% 9.8 mph SSE15.8 kmh SSE 13.6 mph21.9 kmh 29.98 in1015.2 mb 0.00 in0.0 mm 0.00 in0.0 mm 0.06 in1.5 mm
09:35 PM 55.0°F12.8°C 49.0°F9.4°C 80% 7.7 mph S12.4 kmh S 12.1 mph19.5 kmh 29.98 in1015.2 mb 0.00 in0.0 mm 0.00 in0.0 mm 0.06 in1.5 mm
09:40 PM 55.0°F12.8°C 49.0°F9.4°C 80% 5.9 mph SSE9.5 kmh SSE 9.2 mph14.8 kmh 29.98 in1015.2 mb 0.00 in0.0 mm 0.00 in0.0 mm 0.06 in1.5 mm
09:45 PM 55.0°F12.8°C 49.0°F9.4°C 80% 7.1 mph SE11.4 kmh SE 11.4 mph18.3 kmh 29.98 in1015.2 mb 0.00 in0.0 mm 0.00 in0.0 mm 0.06 in1.5 mm
09:50 PM 54.9°F12.7°C 48.8°F9.3°C 80% 8.8 mph SE14.2 kmh SE 13.0 mph20.9 kmh 29.98 in1015.2 mb 0.00 in0.0 mm 0.00 in0.0 mm 0.06 in1.5 mm
09:55 PM 54.9°F12.7°C 48.8°F9.3°C 80% 9.7 mph S15.6 kmh S 12.1 mph19.5 kmh 29.99 in1015.6 mb 0.00 in0.0 mm 0.00 in0.0 mm 0.06 in1.5 mm
10:00 PM 54.9°F12.7°C 48.8°F9.3°C 80% 8.0 mph S12.9 kmh S 11.4 mph18.3 kmh 29.99 in1015.6 mb 0.00 in0.0 mm 0.00 in0.0 mm 0.06 in1.5 mm
10:05 PM 54.9°F12.7°C 48.8°F9.3°C 80% 6.9 mph SE11.1 kmh SE 7.6 mph12.2 kmh 29.99 in1015.6 mb 0.00 in0.0 mm 0.00 in0.0 mm 0.06 in1.5 mm
10:10 PM 54.9°F12.7°C 48.8°F9.3°C 80% 6.4 mph SSE10.3 kmh SSE 9.8 mph15.8 kmh 29.98 in1015.2 mb 0.00 in0.0 mm 0.00 in0.0 mm 0.06 in1.5 mm
10:15 PM 54.7°F12.6°C 49.1°F9.5°C 81% 7.8 mph SSE12.6 kmh SSE 13.6 mph21.9 kmh 29.98 in1015.2 mb 0.00 in0.0 mm 0.00 in0.0 mm 0.06 in1.5 mm
10:20 PM 54.7°F12.6°C 49.2°F9.6°C 82% 8.2 mph S13.2 kmh S 14.5 mph23.3 kmh 29.98 in1015.2 mb 0.00 in0.0 mm 0.00 in0.0 mm 0.06 in1.5 mm
10:25 PM 54.7°F12.6°C 49.0°F9.4°C 81% 7.9 mph SSE12.7 kmh SSE 15.2 mph24.5 kmh 29.98 in1015.2 mb 0.00 in0.0 mm 0.00 in0.0 mm 0.06 in1.5 mm
10:30 PM 54.7°F12.6°C 48.9°F9.4°C 81% 9.5 mph SSE15.3 kmh SSE 14.5 mph23.3 kmh 29.98 in1015.2 mb 0.00 in0.0 mm 0.00 in0.0 mm 0.06 in1.5 mm
10:35 PM 54.6°F12.6°C 48.6°F9.2°C 80% 9.4 mph SE15.1 kmh SE 12.1 mph19.5 kmh 29.98 in1015.2 mb 0.00 in0.0 mm 0.00 in0.0 mm 0.06 in1.5 mm
10:40 PM 54.5°F12.5°C 48.5°F9.2°C 80% 9.8 mph SSE15.8 kmh SSE 17.4 mph28.0 kmh 29.98 in1015.2 mb 0.00 in0.0 mm 0.00 in0.0 mm 0.06 in1.5 mm
10:45 PM 54.5°F12.5°C 48.5°F9.2°C 80% 11.1 mph SSE17.9 kmh SSE 18.3 mph29.5 kmh 29.98 in1015.2 mb 0.00 in0.0 mm 0.00 in0.0 mm 0.06 in1.5 mm
10:50 PM 54.5°F12.5°C 48.4°F9.1°C 80% 9.5 mph S15.3 kmh S 15.2 mph24.5 kmh 29.98 in1015.2 mb 0.00 in0.0 mm 0.00 in0.0 mm 0.06 in1.5 mm
10:55 PM 54.5°F12.5°C 48.1°F8.9°C 79% 9.6 mph S15.4 kmh S 13.6 mph21.9 kmh 29.98 in1015.2 mb 0.00 in0.0 mm 0.00 in0.0 mm 0.06 in1.5 mm
11:00 PM 54.5°F12.5°C 48.1°F8.9°C 79% 8.7 mph S14.0 kmh S 15.2 mph24.5 kmh 29.98 in1015.2 mb 0.00 in0.0 mm 0.00 in0.0 mm 0.06 in1.5 mm
11:05 PM 54.5°F12.5°C 48.1°F8.9°C 79% 9.4 mph S15.1 kmh S 15.2 mph24.5 kmh 29.99 in1015.6 mb 0.00 in0.0 mm 0.00 in0.0 mm 0.06 in1.5 mm
11:10 PM 54.3°F12.4°C 47.9°F8.8°C 79% 10.4 mph SSE16.7 kmh SSE 14.5 mph23.3 kmh 29.98 in1015.2 mb 0.00 in0.0 mm 0.00 in0.0 mm 0.06 in1.5 mm
11:15 PM 54.3°F12.4°C 47.9°F8.8°C 79% 10.0 mph S16.1 kmh S 14.5 mph23.3 kmh 29.99 in1015.6 mb 0.00 in0.0 mm 0.00 in0.0 mm 0.06 in1.5 mm
11:20 PM 54.2°F12.3°C 47.8°F8.8°C 79% 10.2 mph S16.4 kmh S 18.3 mph29.5 kmh 29.99 in1015.6 mb 0.00 in0.0 mm 0.00 in0.0 mm 0.06 in1.5 mm
11:25 PM 54.1°F12.3°C 48.0°F8.9°C 80% 12.0 mph S19.3 kmh S 18.3 mph29.5 kmh 29.98 in1015.2 mb 0.00 in0.0 mm 0.00 in0.0 mm 0.06 in1.5 mm
11:30 PM 54.1°F12.3°C 48.1°F8.9°C 80% 8.1 mph S13.0 kmh S 15.9 mph25.6 kmh 29.98 in1015.2 mb 0.00 in0.0 mm 0.00 in0.0 mm 0.06 in1.5 mm
11:35 PM 54.0°F12.2°C 47.9°F8.8°C 80% 10.4 mph SE16.7 kmh SE 15.9 mph25.6 kmh 29.98 in1015.2 mb 0.00 in0.0 mm 0.00 in0.0 mm 0.06 in1.5 mm
11:40 PM 54.0°F12.2°C 47.9°F8.8°C 80% 11.4 mph SSE18.3 kmh SSE 15.9 mph25.6 kmh 29.98 in1015.2 mb 0.00 in0.0 mm 0.00 in0.0 mm 0.06 in1.5 mm
11:45 PM 54.0°F12.2°C 47.9°F8.8°C 80% 10.6 mph SSE17.1 kmh SSE 13.6 mph21.9 kmh 29.98 in1015.2 mb 0.00 in0.0 mm 0.00 in0.0 mm 0.06 in1.5 mm
11:50 PM 54.0°F12.2°C 47.6°F8.7°C 79% 8.6 mph S13.8 kmh S 13.6 mph21.9 kmh 29.98 in1015.2 mb 0.00 in0.0 mm 0.00 in0.0 mm 0.06 in1.5 mm
11:55 PM 54.0°F12.2°C 47.6°F8.7°C 79% 7.9 mph S12.7 kmh S 10.7 mph17.2 kmh 29.98 in1015.2 mb 0.00 in0.0 mm 0.00 in0.0 mm 0.06 in1.5 mm